sensor_id;sensor_type;location;lat;lon;timestamp;P1;durP1;ratioP1;P2;durP2;ratioP2
22034;SDS011;11181;51.002;4.356;2023-01-24T00:01:16;25.63;;;15.50;;
22034;SDS011;11181;51.002;4.356;2023-01-24T00:03:43;23.73;;;15.33;;
22034;SDS011;11181;51.002;4.356;2023-01-24T00:06:10;21.67;;;14.70;;
22034;SDS011;11181;51.002;4.356;2023-01-24T00:08:37;23.07;;;14.63;;
22034;SDS011;11181;51.002;4.356;2023-01-24T00:11:05;24.03;;;15.27;;
22034;SDS011;11181;51.002;4.356;2023-01-24T00:13:35;26.47;;;14.73;;
22034;SDS011;11181;51.002;4.356;2023-01-24T00:16:03;19.70;;;12.70;;
22034;SDS011;11181;51.002;4.356;2023-01-24T00:18:31;22.43;;;14.43;;
22034;SDS011;11181;51.002;4.356;2023-01-24T00:21:02;23.20;;;14.70;;
22034;SDS011;11181;51.002;4.356;2023-01-24T00:23:34;24.27;;;15.03;;
22034;SDS011;11181;51.002;4.356;2023-01-24T00:26:01;22.37;;;13.90;;
22034;SDS011;11181;51.002;4.356;2023-01-24T00:28:28;23.30;;;13.93;;
22034;SDS011;11181;51.002;4.356;2023-01-24T00:30:56;25.13;;;14.53;;
22034;SDS011;11181;51.002;4.356;2023-01-24T00:33:23;24.90;;;14.87;;
22034;SDS011;11181;51.002;4.356;2023-01-24T00:35:50;25.37;;;15.53;;
22034;SDS011;11181;51.002;4.356;2023-01-24T00:38:17;26.50;;;15.27;;
22034;SDS011;11181;51.002;4.356;2023-01-24T00:40:44;26.00;;;15.97;;
22034;SDS011;11181;51.002;4.356;2023-01-24T00:43:11;24.57;;;14.83;;
22034;SDS011;11181;51.002;4.356;2023-01-24T00:45:39;23.97;;;14.90;;
22034;SDS011;11181;51.002;4.356;2023-01-24T00:48:08;26.13;;;14.87;;
22034;SDS011;11181;51.002;4.356;2023-01-24T00:50:35;26.17;;;14.53;;
22034;SDS011;11181;51.002;4.356;2023-01-24T00:53:03;24.03;;;14.83;;
22034;SDS011;11181;51.002;4.356;2023-01-24T00:55:30;22.20;;;15.00;;
22034;SDS011;11181;51.002;4.356;2023-01-24T00:57:57;26.10;;;14.43;;
22034;SDS011;11181;51.002;4.356;2023-01-24T01:00:24;23.67;;;13.97;;
22034;SDS011;11181;51.002;4.356;2023-01-24T01:02:50;24.27;;;13.53;;
22034;SDS011;11181;51.002;4.356;2023-01-24T01:05:19;23.43;;;15.50;;
22034;SDS011;11181;51.002;4.356;2023-01-24T01:07:46;24.37;;;14.93;;
22034;SDS011;11181;51.002;4.356;2023-01-24T01:10:14;25.33;;;15.00;;
22034;SDS011;11181;51.002;4.356;2023-01-24T01:12:41;26.30;;;14.80;;
22034;SDS011;11181;51.002;4.356;2023-01-24T01:15:08;25.53;;;14.90;;
22034;SDS011;11181;51.002;4.356;2023-01-24T01:17:36;21.90;;;13.70;;
22034;SDS011;11181;51.002;4.356;2023-01-24T01:20:03;26.40;;;15.20;;
22034;SDS011;11181;51.002;4.356;2023-01-24T01:22:32;23.93;;;13.77;;
22034;SDS011;11181;51.002;4.356;2023-01-24T01:24:59;24.53;;;15.10;;
22034;SDS011;11181;51.002;4.356;2023-01-24T01:27:26;24.87;;;15.30;;
22034;SDS011;11181;51.002;4.356;2023-01-24T01:29:52;25.53;;;14.90;;
22034;SDS011;11181;51.002;4.356;2023-01-24T01:32:19;25.33;;;14.70;;
22034;SDS011;11181;51.002;4.356;2023-01-24T01:34:46;22.67;;;13.67;;
22034;SDS011;11181;51.002;4.356;2023-01-24T01:37:13;26.43;;;14.60;;
22034;SDS011;11181;51.002;4.356;2023-01-24T01:39:41;24.57;;;15.30;;
22034;SDS011;11181;51.002;4.356;2023-01-24T01:42:08;25.07;;;14.63;;
22034;SDS011;11181;51.002;4.356;2023-01-24T01:44:38;21.27;;;14.13;;
22034;SDS011;11181;51.002;4.356;2023-01-24T01:47:18;19.80;;;12.73;;
22034;SDS011;11181;51.002;4.356;2023-01-24T01:49:50;23.13;;;13.97;;
22034;SDS011;11181;51.002;4.356;2023-01-24T01:52:22;22.33;;;14.03;;
22034;SDS011;11181;51.002;4.356;2023-01-24T01:54:56;24.03;;;14.60;;
22034;SDS011;11181;51.002;4.356;2023-01-24T01:57:27;22.83;;;13.37;;
22034;SDS011;11181;51.002;4.356;2023-01-24T01:59:57;25.77;;;15.10;;
22034;SDS011;11181;51.002;4.356;2023-01-24T02:02:27;25.67;;;15.17;;
22034;SDS011;11181;51.002;4.356;2023-01-24T02:04:57;26.60;;;14.47;;
22034;SDS011;11181;51.002;4.356;2023-01-24T02:07:28;24.43;;;14.13;;
22034;SDS011;11181;51.002;4.356;2023-01-24T02:09:59;27.13;;;14.40;;
22034;SDS011;11181;51.002;4.356;2023-01-24T02:12:28;21.60;;;13.83;;
22034;SDS011;11181;51.002;4.356;2023-01-24T02:14:58;23.43;;;13.47;;
22034;SDS011;11181;51.002;4.356;2023-01-24T02:17:47;24.37;;;14.90;;
22034;SDS011;11181;51.002;4.356;2023-01-24T02:20:21;24.30;;;14.10;;
22034;SDS011;11181;51.002;4.356;2023-01-24T02:23:00;24.50;;;14.10;;
22034;SDS011;11181;51.002;4.356;2023-01-24T02:25:37;23.23;;;13.57;;
22034;SDS011;11181;51.002;4.356;2023-01-24T02:28:10;21.30;;;13.77;;
22034;SDS011;11181;51.002;4.356;2023-01-24T02:30:37;24.37;;;14.83;;
22034;SDS011;11181;51.002;4.356;2023-01-24T02:33:11;22.97;;;13.23;;
22034;SDS011;11181;51.002;4.356;2023-01-24T02:35:38;24.60;;;13.97;;
22034;SDS011;11181;51.002;4.356;2023-01-24T02:38:06;24.63;;;13.87;;
22034;SDS011;11181;51.002;4.356;2023-01-24T02:40:39;20.13;;;12.23;;
22034;SDS011;11181;51.002;4.356;2023-01-24T02:43:07;23.77;;;13.63;;
22034;SDS011;11181;51.002;4.356;2023-01-24T02:45:38;23.73;;;13.63;;
22034;SDS011;11181;51.002;4.356;2023-01-24T02:48:05;22.40;;;12.90;;
22034;SDS011;11181;51.002;4.356;2023-01-24T02:50:32;23.27;;;13.97;;
22034;SDS011;11181;51.002;4.356;2023-01-24T02:53:19;20.50;;;12.93;;
22034;SDS011;11181;51.002;4.356;2023-01-24T02:55:54;21.27;;;13.30;;
22034;SDS011;11181;51.002;4.356;2023-01-24T02:58:40;22.87;;;12.70;;
22034;SDS011;11181;51.002;4.356;2023-01-24T03:01:07;24.83;;;14.53;;
22034;SDS011;11181;51.002;4.356;2023-01-24T03:03:34;23.50;;;13.23;;
22034;SDS011;11181;51.002;4.356;2023-01-24T03:06:01;24.07;;;13.80;;
22034;SDS011;11181;51.002;4.356;2023-01-24T03:08:29;21.23;;;12.60;;
22034;SDS011;11181;51.002;4.356;2023-01-24T03:10:57;24.70;;;13.70;;
22034;SDS011;11181;51.002;4.356;2023-01-24T03:13:24;25.03;;;13.93;;
22034;SDS011;11181;51.002;4.356;2023-01-24T03:16:10;24.47;;;13.43;;
22034;SDS011;11181;51.002;4.356;2023-01-24T03:18:54;22.53;;;13.00;;
22034;SDS011;11181;51.002;4.356;2023-01-24T03:21:39;24.10;;;13.30;;
22034;SDS011;11181;51.002;4.356;2023-01-24T03:24:24;22.83;;;13.33;;
22034;SDS011;11181;51.002;4.356;2023-01-24T03:27:08;23.37;;;13.63;;
22034;SDS011;11181;51.002;4.356;2023-01-24T03:29:53;22.03;;;13.00;;
22034;SDS011;11181;51.002;4.356;2023-01-24T03:32:38;24.27;;;13.53;;
22034;SDS011;11181;51.002;4.356;2023-01-24T03:35:25;21.00;;;12.50;;
22034;SDS011;11181;51.002;4.356;2023-01-24T03:37:52;22.57;;;13.47;;
22034;SDS011;11181;51.002;4.356;2023-01-24T03:40:36;21.00;;;12.77;;
22034;SDS011;11181;51.002;4.356;2023-01-24T03:43:03;20.97;;;12.70;;
22034;SDS011;11181;51.002;4.356;2023-01-24T03:45:30;21.37;;;12.87;;
22034;SDS011;11181;51.002;4.356;2023-01-24T03:48:00;20.13;;;11.97;;
22034;SDS011;11181;51.002;4.356;2023-01-24T03:50:29;24.70;;;13.53;;
22034;SDS011;11181;51.002;4.356;2023-01-24T03:53:16;22.70;;;13.87;;
22034;SDS011;11181;51.002;4.356;2023-01-24T03:55:43;21.17;;;12.80;;
22034;SDS011;11181;51.002;4.356;2023-01-24T03:58:11;22.00;;;13.03;;
22034;SDS011;11181;51.002;4.356;2023-01-24T04:00:40;23.53;;;12.70;;
22034;SDS011;11181;51.002;4.356;2023-01-24T04:03:08;20.07;;;12.40;;
22034;SDS011;11181;51.002;4.356;2023-01-24T04:05:35;21.20;;;11.87;;
22034;SDS011;11181;51.002;4.356;2023-01-24T04:08:02;23.70;;;13.60;;
22034;SDS011;11181;51.002;4.356;2023-01-24T04:10:30;22.27;;;13.60;;
22034;SDS011;11181;51.002;4.356;2023-01-24T04:13:00;21.70;;;12.13;;
22034;SDS011;11181;51.002;4.356;2023-01-24T04:15:28;21.10;;;11.63;;
22034;SDS011;11181;51.002;4.356;2023-01-24T04:17:56;20.10;;;11.37;;
22034;SDS011;11181;51.002;4.356;2023-01-24T04:20:25;18.40;;;11.37;;
22034;SDS011;11181;51.002;4.356;2023-01-24T04:22:59;21.13;;;12.27;;
22034;SDS011;11181;51.002;4.356;2023-01-24T04:25:27;21.43;;;11.57;;
22034;SDS011;11181;51.002;4.356;2023-01-24T04:27:54;21.23;;;12.30;;
22034;SDS011;11181;51.002;4.356;2023-01-24T04:30:21;21.27;;;12.97;;
22034;SDS011;11181;51.002;4.356;2023-01-24T04:32:48;21.27;;;12.23;;
22034;SDS011;11181;51.002;4.356;2023-01-24T04:35:16;23.27;;;12.83;;
22034;SDS011;11181;51.002;4.356;2023-01-24T04:37:46;18.90;;;11.70;;
22034;SDS011;11181;51.002;4.356;2023-01-24T04:40:13;22.53;;;13.10;;
22034;SDS011;11181;51.002;4.356;2023-01-24T04:42:40;19.83;;;12.93;;
22034;SDS011;11181;51.002;4.356;2023-01-24T04:45:08;20.83;;;11.90;;
22034;SDS011;11181;51.002;4.356;2023-01-24T04:47:36;20.53;;;12.33;;
22034;SDS011;11181;51.002;4.356;2023-01-24T04:50:03;25.87;;;13.83;;
22034;SDS011;11181;51.002;4.356;2023-01-24T04:52:31;23.57;;;12.50;;
22034;SDS011;11181;51.002;4.356;2023-01-24T04:54:59;23.07;;;13.50;;
22034;SDS011;11181;51.002;4.356;2023-01-24T04:57:26;21.17;;;12.67;;
22034;SDS011;11181;51.002;4.356;2023-01-24T04:59:53;21.33;;;12.67;;
22034;SDS011;11181;51.002;4.356;2023-01-24T05:02:20;20.07;;;12.53;;
22034;SDS011;11181;51.002;4.356;2023-01-24T05:04:47;21.53;;;12.57;;
22034;SDS011;11181;51.002;4.356;2023-01-24T05:07:14;25.23;;;13.73;;
22034;SDS011;11181;51.002;4.356;2023-01-24T05:09:41;19.70;;;13.10;;
22034;SDS011;11181;51.002;4.356;2023-01-24T05:12:09;20.23;;;12.57;;
22034;SDS011;11181;51.002;4.356;2023-01-24T05:14:36;19.73;;;12.37;;
22034;SDS011;11181;51.002;4.356;2023-01-24T05:17:03;19.00;;;12.37;;
22034;SDS011;11181;51.002;4.356;2023-01-24T05:19:30;21.47;;;13.03;;
22034;SDS011;11181;51.002;4.356;2023-01-24T05:21:57;22.60;;;13.57;;
22034;SDS011;11181;51.002;4.356;2023-01-24T05:24:24;23.57;;;13.17;;
22034;SDS011;11181;51.002;4.356;2023-01-24T05:26:50;21.63;;;12.97;;
22034;SDS011;11181;51.002;4.356;2023-01-24T05:29:19;20.13;;;12.83;;
22034;SDS011;11181;51.002;4.356;2023-01-24T05:31:46;22.50;;;12.57;;
22034;SDS011;11181;51.002;4.356;2023-01-24T05:34:12;22.93;;;13.83;;
22034;SDS011;11181;51.002;4.356;2023-01-24T05:36:39;22.03;;;13.03;;
22034;SDS011;11181;51.002;4.356;2023-01-24T05:39:06;23.67;;;13.63;;
22034;SDS011;11181;51.002;4.356;2023-01-24T05:41:33;21.90;;;14.03;;
22034;SDS011;11181;51.002;4.356;2023-01-24T05:44:00;25.50;;;13.33;;
22034;SDS011;11181;51.002;4.356;2023-01-24T05:46:28;26.40;;;14.13;;
22034;SDS011;11181;51.002;4.356;2023-01-24T05:48:55;21.30;;;13.67;;
22034;SDS011;11181;51.002;4.356;2023-01-24T05:51:22;19.97;;;12.83;;
22034;SDS011;11181;51.002;4.356;2023-01-24T05:53:49;22.80;;;14.13;;
22034;SDS011;11181;51.002;4.356;2023-01-24T05:56:17;23.37;;;14.27;;
22034;SDS011;11181;51.002;4.356;2023-01-24T05:58:46;22.57;;;13.23;;
22034;SDS011;11181;51.002;4.356;2023-01-24T06:01:14;22.33;;;14.50;;
22034;SDS011;11181;51.002;4.356;2023-01-24T06:03:45;24.03;;;14.40;;
22034;SDS011;11181;51.002;4.356;2023-01-24T06:06:14;25.60;;;15.87;;
22034;SDS011;11181;51.002;4.356;2023-01-24T06:08:42;26.20;;;14.30;;
22034;SDS011;11181;51.002;4.356;2023-01-24T06:11:10;25.60;;;15.30;;
22034;SDS011;11181;51.002;4.356;2023-01-24T06:13:38;22.90;;;14.63;;
22034;SDS011;11181;51.002;4.356;2023-01-24T06:16:06;23.67;;;13.97;;
22034;SDS011;11181;51.002;4.356;2023-01-24T06:18:35;23.40;;;14.53;;
22034;SDS011;11181;51.002;4.356;2023-01-24T06:21:10;23.97;;;15.10;;
22034;SDS011;11181;51.002;4.356;2023-01-24T06:23:48;25.20;;;15.67;;
22034;SDS011;11181;51.002;4.356;2023-01-24T06:26:15;22.43;;;12.80;;
22034;SDS011;11181;51.002;4.356;2023-01-24T06:28:42;25.90;;;15.27;;
22034;SDS011;11181;51.002;4.356;2023-01-24T06:31:14;24.63;;;15.63;;
22034;SDS011;11181;51.002;4.356;2023-01-24T06:33:53;27.30;;;15.67;;
22034;SDS011;11181;51.002;4.356;2023-01-24T06:36:37;25.93;;;14.47;;
22034;SDS011;11181;51.002;4.356;2023-01-24T06:39:14;26.90;;;14.57;;
22034;SDS011;11181;51.002;4.356;2023-01-24T06:41:42;25.70;;;16.63;;
22034;SDS011;11181;51.002;4.356;2023-01-24T06:44:09;25.43;;;14.97;;
22034;SDS011;11181;51.002;4.356;2023-01-24T06:46:37;24.93;;;14.60;;
22034;SDS011;11181;51.002;4.356;2023-01-24T06:49:04;22.50;;;13.53;;
22034;SDS011;11181;51.002;4.356;2023-01-24T06:51:31;25.70;;;15.27;;
22034;SDS011;11181;51.002;4.356;2023-01-24T06:53:59;23.20;;;14.43;;
22034;SDS011;11181;51.002;4.356;2023-01-24T06:56:26;26.27;;;16.03;;
22034;SDS011;11181;51.002;4.356;2023-01-24T06:58:53;24.23;;;14.87;;
22034;SDS011;11181;51.002;4.356;2023-01-24T07:01:20;27.60;;;16.43;;
22034;SDS011;11181;51.002;4.356;2023-01-24T07:03:47;31.07;;;16.83;;
22034;SDS011;11181;51.002;4.356;2023-01-24T07:06:14;22.63;;;14.90;;
22034;SDS011;11181;51.002;4.356;2023-01-24T07:08:41;25.23;;;16.30;;
22034;SDS011;11181;51.002;4.356;2023-01-24T07:11:09;27.40;;;16.33;;
22034;SDS011;11181;51.002;4.356;2023-01-24T07:13:36;24.10;;;15.53;;
22034;SDS011;11181;51.002;4.356;2023-01-24T07:16:03;24.97;;;15.73;;
22034;SDS011;11181;51.002;4.356;2023-01-24T07:18:31;30.30;;;16.00;;
22034;SDS011;11181;51.002;4.356;2023-01-24T07:20:59;27.20;;;16.63;;
22034;SDS011;11181;51.002;4.356;2023-01-24T07:23:26;25.27;;;15.40;;
22034;SDS011;11181;51.002;4.356;2023-01-24T07:25:55;24.50;;;14.57;;
22034;SDS011;11181;51.002;4.356;2023-01-24T07:28:24;30.30;;;16.47;;
22034;SDS011;11181;51.002;4.356;2023-01-24T07:30:51;28.20;;;15.97;;
22034;SDS011;11181;51.002;4.356;2023-01-24T07:33:19;29.83;;;17.70;;
22034;SDS011;11181;51.002;4.356;2023-01-24T07:35:46;29.30;;;17.27;;
22034;SDS011;11181;51.002;4.356;2023-01-24T07:38:13;29.50;;;17.97;;
22034;SDS011;11181;51.002;4.356;2023-01-24T07:40:40;26.53;;;16.43;;
22034;SDS011;11181;51.002;4.356;2023-01-24T07:43:08;26.30;;;15.77;;
22034;SDS011;11181;51.002;4.356;2023-01-24T07:45:36;27.67;;;17.27;;
22034;SDS011;11181;51.002;4.356;2023-01-24T07:48:04;30.33;;;17.53;;
22034;SDS011;11181;51.002;4.356;2023-01-24T07:50:32;26.73;;;15.47;;
22034;SDS011;11181;51.002;4.356;2023-01-24T07:53:00;29.23;;;17.23;;
22034;SDS011;11181;51.002;4.356;2023-01-24T07:55:27;26.23;;;16.47;;
22034;SDS011;11181;51.002;4.356;2023-01-24T07:57:58;28.13;;;16.60;;
22034;SDS011;11181;51.002;4.356;2023-01-24T08:00:26;29.80;;;16.17;;
22034;SDS011;11181;51.002;4.356;2023-01-24T08:02:54;30.23;;;17.60;;
22034;SDS011;11181;51.002;4.356;2023-01-24T08:05:21;30.90;;;18.40;;
22034;SDS011;11181;51.002;4.356;2023-01-24T08:07:48;29.43;;;18.63;;
22034;SDS011;11181;51.002;4.356;2023-01-24T08:10:15;29.87;;;17.70;;
22034;SDS011;11181;51.002;4.356;2023-01-24T08:12:42;29.70;;;17.37;;
22034;SDS011;11181;51.002;4.356;2023-01-24T08:15:10;29.47;;;16.63;;
22034;SDS011;11181;51.002;4.356;2023-01-24T08:17:37;31.17;;;18.60;;
22034;SDS011;11181;51.002;4.356;2023-01-24T08:20:07;30.20;;;16.90;;
22034;SDS011;11181;51.002;4.356;2023-01-24T08:22:34;28.50;;;17.10;;
22034;SDS011;11181;51.002;4.356;2023-01-24T08:25:04;28.20;;;17.67;;
22034;SDS011;11181;51.002;4.356;2023-01-24T08:27:31;28.60;;;17.20;;
22034;SDS011;11181;51.002;4.356;2023-01-24T08:29:58;29.50;;;16.77;;
22034;SDS011;11181;51.002;4.356;2023-01-24T08:32:25;30.40;;;17.77;;
22034;SDS011;11181;51.002;4.356;2023-01-24T08:34:52;31.73;;;19.13;;
22034;SDS011;11181;51.002;4.356;2023-01-24T08:37:21;31.07;;;18.90;;
22034;SDS011;11181;51.002;4.356;2023-01-24T08:39:49;27.67;;;17.43;;
22034;SDS011;11181;51.002;4.356;2023-01-24T08:42:16;30.70;;;18.83;;
22034;SDS011;11181;51.002;4.356;2023-01-24T08:44:43;29.50;;;17.87;;
22034;SDS011;11181;51.002;4.356;2023-01-24T08:47:09;33.33;;;19.10;;
22034;SDS011;11181;51.002;4.356;2023-01-24T08:49:36;30.10;;;18.67;;
22034;SDS011;11181;51.002;4.356;2023-01-24T08:52:04;30.87;;;18.40;;
22034;SDS011;11181;51.002;4.356;2023-01-24T08:54:33;32.17;;;17.97;;
22034;SDS011;11181;51.002;4.356;2023-01-24T08:57:01;32.97;;;18.67;;
22034;SDS011;11181;51.002;4.356;2023-01-24T08:59:28;35.47;;;20.30;;
22034;SDS011;11181;51.002;4.356;2023-01-24T09:01:55;33.23;;;18.90;;
22034;SDS011;11181;51.002;4.356;2023-01-24T09:04:22;31.30;;;19.00;;
22034;SDS011;11181;51.002;4.356;2023-01-24T09:06:51;37.57;;;20.73;;
22034;SDS011;11181;51.002;4.356;2023-01-24T09:09:18;35.50;;;20.00;;
22034;SDS011;11181;51.002;4.356;2023-01-24T09:11:47;30.63;;;19.07;;
22034;SDS011;11181;51.002;4.356;2023-01-24T09:14:13;36.33;;;20.60;;
22034;SDS011;11181;51.002;4.356;2023-01-24T09:16:40;32.00;;;19.00;;
22034;SDS011;11181;51.002;4.356;2023-01-24T09:19:09;34.17;;;19.43;;
22034;SDS011;11181;51.002;4.356;2023-01-24T09:21:37;32.77;;;19.43;;
22034;SDS011;11181;51.002;4.356;2023-01-24T09:24:04;34.07;;;20.27;;
22034;SDS011;11181;51.002;4.356;2023-01-24T09:26:32;34.57;;;21.03;;
22034;SDS011;11181;51.002;4.356;2023-01-24T09:29:00;32.60;;;18.93;;
22034;SDS011;11181;51.002;4.356;2023-01-24T09:31:29;32.13;;;18.40;;
22034;SDS011;11181;51.002;4.356;2023-01-24T09:33:56;32.93;;;19.67;;
22034;SDS011;11181;51.002;4.356;2023-01-24T09:36:23;34.30;;;20.97;;
22034;SDS011;11181;51.002;4.356;2023-01-24T09:38:50;31.63;;;18.87;;
22034;SDS011;11181;51.002;4.356;2023-01-24T09:41:20;30.90;;;18.60;;
22034;SDS011;11181;51.002;4.356;2023-01-24T09:44:00;29.53;;;18.53;;
22034;SDS011;11181;51.002;4.356;2023-01-24T09:46:33;32.27;;;18.93;;
22034;SDS011;11181;51.002;4.356;2023-01-24T09:49:10;28.93;;;18.00;;
22034;SDS011;11181;51.002;4.356;2023-01-24T09:51:43;30.00;;;17.93;;
22034;SDS011;11181;51.002;4.356;2023-01-24T09:54:13;28.00;;;17.53;;
22034;SDS011;11181;51.002;4.356;2023-01-24T09:56:47;30.90;;;18.20;;
22034;SDS011;11181;51.002;4.356;2023-01-24T09:59:19;32.30;;;18.77;;
22034;SDS011;11181;51.002;4.356;2023-01-24T10:01:47;29.83;;;18.57;;
22034;SDS011;11181;51.002;4.356;2023-01-24T10:04:16;28.63;;;17.50;;
22034;SDS011;11181;51.002;4.356;2023-01-24T10:06:52;30.00;;;18.90;;
22034;SDS011;11181;51.002;4.356;2023-01-24T10:09:37;30.67;;;16.37;;
22034;SDS011;11181;51.002;4.356;2023-01-24T10:12:22;27.33;;;17.13;;
22034;SDS011;11181;51.002;4.356;2023-01-24T10:15:04;30.50;;;17.00;;
22034;SDS011;11181;51.002;4.356;2023-01-24T10:17:41;27.20;;;15.77;;
22034;SDS011;11181;51.002;4.356;2023-01-24T10:20:29;26.97;;;17.30;;
22034;SDS011;11181;51.002;4.356;2023-01-24T10:23:08;33.70;;;18.73;;
22034;SDS011;11181;51.002;4.356;2023-01-24T10:25:44;30.27;;;18.67;;
22034;SDS011;11181;51.002;4.356;2023-01-24T10:28:18;32.87;;;17.27;;
22034;SDS011;11181;51.002;4.356;2023-01-24T10:30:53;26.93;;;16.83;;
22034;SDS011;11181;51.002;4.356;2023-01-24T10:33:27;31.83;;;18.53;;
22034;SDS011;11181;51.002;4.356;2023-01-24T10:35:59;30.10;;;20.20;;
22034;SDS011;11181;51.002;4.356;2023-01-24T10:38:30;29.43;;;18.23;;
22034;SDS011;11181;51.002;4.356;2023-01-24T10:41:00;29.03;;;19.17;;
22034;SDS011;11181;51.002;4.356;2023-01-24T10:43:41;30.97;;;18.90;;
22034;SDS011;11181;51.002;4.356;2023-01-24T10:46:18;28.10;;;17.33;;
22034;SDS011;11181;51.002;4.356;2023-01-24T10:49:00;28.77;;;17.70;;
22034;SDS011;11181;51.002;4.356;2023-01-24T10:51:29;31.07;;;19.87;;
22034;SDS011;11181;51.002;4.356;2023-01-24T10:53:59;30.33;;;18.63;;
22034;SDS011;11181;51.002;4.356;2023-01-24T10:56:27;29.73;;;18.97;;
22034;SDS011;11181;51.002;4.356;2023-01-24T10:58:55;31.37;;;18.70;;
22034;SDS011;11181;51.002;4.356;2023-01-24T11:01:32;27.70;;;17.93;;
22034;SDS011;11181;51.002;4.356;2023-01-24T11:04:11;29.30;;;19.00;;
22034;SDS011;11181;51.002;4.356;2023-01-24T11:06:42;32.90;;;20.23;;
22034;SDS011;11181;51.002;4.356;2023-01-24T11:09:13;27.37;;;17.40;;
22034;SDS011;11181;51.002;4.356;2023-01-24T11:11:43;28.03;;;16.00;;
22034;SDS011;11181;51.002;4.356;2023-01-24T11:14:12;29.97;;;16.47;;
22034;SDS011;11181;51.002;4.356;2023-01-24T11:16:44;29.80;;;17.77;;
22034;SDS011;11181;51.002;4.356;2023-01-24T11:19:24;27.53;;;18.07;;
22034;SDS011;11181;51.002;4.356;2023-01-24T11:21:54;28.10;;;18.00;;
22034;SDS011;11181;51.002;4.356;2023-01-24T11:24:22;28.97;;;17.90;;
22034;SDS011;11181;51.002;4.356;2023-01-24T11:26:50;25.20;;;17.30;;
22034;SDS011;11181;51.002;4.356;2023-01-24T11:29:28;27.97;;;17.63;;
22034;SDS011;11181;51.002;4.356;2023-01-24T11:31:59;27.20;;;17.67;;
22034;SDS011;11181;51.002;4.356;2023-01-24T11:34:44;24.97;;;16.43;;
22034;SDS011;11181;51.002;4.356;2023-01-24T11:40:15;26.23;;;15.30;;
22034;SDS011;11181;51.002;4.356;2023-01-24T11:42:53;27.80;;;15.93;;
22034;SDS011;11181;51.002;4.356;2023-01-24T11:45:40;23.83;;;15.10;;
22034;SDS011;11181;51.002;4.356;2023-01-24T11:48:22;24.77;;;15.37;;
22034;SDS011;11181;51.002;4.356;2023-01-24T11:50:59;28.67;;;16.17;;
22034;SDS011;11181;51.002;4.356;2023-01-24T11:53:52;22.93;;;15.57;;
22034;SDS011;11181;51.002;4.356;2023-01-24T11:56:32;26.97;;;16.57;;
22034;SDS011;11181;51.002;4.356;2023-01-24T11:59:11;25.47;;;15.37;;
22034;SDS011;11181;51.002;4.356;2023-01-24T12:01:51;26.90;;;15.57;;
22034;SDS011;11181;51.002;4.356;2023-01-24T12:04:38;23.70;;;14.37;;
22034;SDS011;11181;51.002;4.356;2023-01-24T12:07:17;22.73;;;15.20;;
22034;SDS011;11181;51.002;4.356;2023-01-24T12:09:54;23.17;;;15.97;;
22034;SDS011;11181;51.002;4.356;2023-01-24T12:12:33;26.33;;;15.73;;
22034;SDS011;11181;51.002;4.356;2023-01-24T12:15:20;23.40;;;16.13;;
22034;SDS011;11181;51.002;4.356;2023-01-24T12:17:58;23.00;;;15.20;;
22034;SDS011;11181;51.002;4.356;2023-01-24T12:23:34;27.57;;;16.07;;
22034;SDS011;11181;51.002;4.356;2023-01-24T12:26:07;26.57;;;16.03;;
22034;SDS011;11181;51.002;4.356;2023-01-24T12:28:41;23.30;;;15.37;;
22034;SDS011;11181;51.002;4.356;2023-01-24T12:31:14;23.23;;;15.23;;
22034;SDS011;11181;51.002;4.356;2023-01-24T12:33:46;24.50;;;15.27;;
22034;SDS011;11181;51.002;4.356;2023-01-24T12:36:23;21.37;;;14.50;;
22034;SDS011;11181;51.002;4.356;2023-01-24T12:38:59;25.07;;;16.03;;
22034;SDS011;11181;51.002;4.356;2023-01-24T12:41:31;23.00;;;14.77;;
22034;SDS011;11181;51.002;4.356;2023-01-24T12:44:00;22.43;;;15.20;;
22034;SDS011;11181;51.002;4.356;2023-01-24T12:46:38;23.00;;;14.97;;
22034;SDS011;11181;51.002;4.356;2023-01-24T12:49:10;24.33;;;15.27;;
22034;SDS011;11181;51.002;4.356;2023-01-24T12:51:49;24.10;;;14.77;;
22034;SDS011;11181;51.002;4.356;2023-01-24T12:54:23;25.83;;;16.37;;
22034;SDS011;11181;51.002;4.356;2023-01-24T12:56:56;24.30;;;16.93;;
22034;SDS011;11181;51.002;4.356;2023-01-24T12:59:27;26.60;;;17.13;;
22034;SDS011;11181;51.002;4.356;2023-01-24T13:02:05;24.03;;;16.37;;
22034;SDS011;11181;51.002;4.356;2023-01-24T13:05:12;25.40;;;15.77;;
22034;SDS011;11181;51.002;4.356;2023-01-24T13:07:51;26.67;;;16.67;;
22034;SDS011;11181;51.002;4.356;2023-01-24T13:10:33;27.57;;;16.87;;
22034;SDS011;11181;51.002;4.356;2023-01-24T13:13:08;27.23;;;17.00;;
22034;SDS011;11181;51.002;4.356;2023-01-24T13:15:46;28.40;;;17.37;;
22034;SDS011;11181;51.002;4.356;2023-01-24T13:18:28;25.10;;;16.17;;
22034;SDS011;11181;51.002;4.356;2023-01-24T13:21:08;29.30;;;17.63;;
22034;SDS011;11181;51.002;4.356;2023-01-24T13:23:54;26.10;;;14.90;;
22034;SDS011;11181;51.002;4.356;2023-01-24T13:26:40;25.93;;;16.10;;
22034;SDS011;11181;51.002;4.356;2023-01-24T13:29:19;25.17;;;16.23;;
22034;SDS011;11181;51.002;4.356;2023-01-24T13:31:58;26.47;;;16.43;;
22034;SDS011;11181;51.002;4.356;2023-01-24T13:34:31;23.97;;;15.63;;
22034;SDS011;11181;51.002;4.356;2023-01-24T13:37:01;24.67;;;15.30;;
22034;SDS011;11181;51.002;4.356;2023-01-24T13:39:31;23.60;;;14.30;;
22034;SDS011;11181;51.002;4.356;2023-01-24T13:42:01;20.67;;;14.67;;
22034;SDS011;11181;51.002;4.356;2023-01-24T13:44:30;22.73;;;14.03;;
22034;SDS011;11181;51.002;4.356;2023-01-24T13:47:04;25.33;;;15.97;;
22034;SDS011;11181;51.002;4.356;2023-01-24T13:52:45;26.33;;;16.20;;
22034;SDS011;11181;51.002;4.356;2023-01-24T13:58:25;24.10;;;15.50;;
22034;SDS011;11181;51.002;4.356;2023-01-24T14:01:00;26.00;;;16.93;;
22034;SDS011;11181;51.002;4.356;2023-01-24T14:03:29;29.57;;;17.73;;
22034;SDS011;11181;51.002;4.356;2023-01-24T14:06:05;29.47;;;17.60;;
22034;SDS011;11181;51.002;4.356;2023-01-24T14:11:39;28.97;;;18.33;;
22034;SDS011;11181;51.002;4.356;2023-01-24T14:14:31;30.07;;;18.30;;
22034;SDS011;11181;51.002;4.356;2023-01-24T14:17:04;27.00;;;17.17;;
22034;SDS011;11181;51.002;4.356;2023-01-24T14:19:50;29.67;;;18.20;;
22034;SDS011;11181;51.002;4.356;2023-01-24T14:22:20;27.60;;;17.83;;
22034;SDS011;11181;51.002;4.356;2023-01-24T14:24:56;29.67;;;18.60;;
22034;SDS011;11181;51.002;4.356;2023-01-24T14:27:32;28.60;;;17.40;;
22034;SDS011;11181;51.002;4.356;2023-01-24T14:30:29;28.43;;;17.90;;
22034;SDS011;11181;51.002;4.356;2023-01-24T14:33:01;26.90;;;17.33;;
22034;SDS011;11181;51.002;4.356;2023-01-24T14:35:38;31.10;;;18.63;;
22034;SDS011;11181;51.002;4.356;2023-01-24T14:38:19;32.40;;;19.33;;
22034;SDS011;11181;51.002;4.356;2023-01-24T14:40:47;31.33;;;18.17;;
22034;SDS011;11181;51.002;4.356;2023-01-24T14:43:16;31.90;;;19.47;;
22034;SDS011;11181;51.002;4.356;2023-01-24T14:45:45;28.73;;;17.40;;
22034;SDS011;11181;51.002;4.356;2023-01-24T14:48:16;30.47;;;19.13;;
22034;SDS011;11181;51.002;4.356;2023-01-24T14:50:55;32.27;;;19.23;;
22034;SDS011;11181;51.002;4.356;2023-01-24T14:53:24;34.30;;;19.50;;
22034;SDS011;11181;51.002;4.356;2023-01-24T14:55:53;31.90;;;18.77;;
22034;SDS011;11181;51.002;4.356;2023-01-24T14:58:22;35.70;;;22.13;;
22034;SDS011;11181;51.002;4.356;2023-01-24T15:00:53;27.73;;;18.17;;